Accueil
METAR-TAF:

METAR-TAF

Aéroports :

Aéroport de Gênes-Christophe Colomb

Gênes, Italie

latitude: 44-25N, longitude: 008-51E, altitude: 2 m

Observation

Le bulletin a été fait il y a 13 minutes, à 21:50 UTC
Vent 9 kt de nord/nord-est
Température 12°C
Humidité 50%
Pression 1014 hPa
Visibilité 10 km ou plus
Quelques nuages à une hauteur de 8000 ft

METAR: LIMJ 082150Z 03009KT 9999 FEW080 12/02 Q1014

Heure: 23:03 (22:03 UTC)

Prévision

Le bulletin a été fait il y a 5 heures et 3 minutes, à 17:00 UTC
Prévision valable du 08 à 18 UTC au 09 à 18 UTC
Vent 12 kt de nord/nord-est
Visibilité 10 km ou plus
Quelques nuages à une hauteur de 5000 ft

TAF: LIMJ 081700Z 0818/0918 02012KT 9999 FEW050

Observations et prévisions météorologiques de plus de 4000 aéroports (messages METAR et TAF).

Les stations disponibles sont représentées par des disques jaunes et rouges sur la carte.

Passer la souris dessus pour voir le nom de la station.

Cliquer dessus pour voir les observations et prévisions météorologiques.

Pour changer de carte: cliquez sur les boutons verts avec une croix noire pour zoomer, sur le bouton vert avec un tiret pour effectuer un zoom arrière, ou sur les flèches vertes pour les cartes adjacentes.


METAR-TAF: